createdAt,value
2019-02-24T00:01:37.970Z,7.80
2019-02-24T00:04:09.177Z,6.90
2019-02-24T00:06:40.249Z,7.15
2019-02-24T00:09:11.391Z,7.12
2019-02-24T00:11:42.485Z,8.63
2019-02-24T00:14:13.556Z,8.13
2019-02-24T00:16:44.616Z,6.45
2019-02-24T00:19:15.716Z,14.10
2019-02-24T00:21:46.811Z,10.48
2019-02-24T00:24:17.907Z,7.92
2019-02-24T00:26:48.939Z,7.50
2019-02-24T00:29:20.011Z,10.23
2019-02-24T00:31:51.053Z,4.83
2019-02-24T00:34:22.118Z,5.83
2019-02-24T00:36:53.255Z,10.60
2019-02-24T00:39:24.377Z,4.55
2019-02-24T00:41:55.477Z,8.75
2019-02-24T00:44:26.514Z,10.35
2019-02-24T00:46:57.662Z,6.10
2019-02-24T00:49:28.807Z,5.35
2019-02-24T00:51:59.876Z,5.60
2019-02-24T00:54:30.933Z,5.85
2019-02-24T00:57:02.040Z,5.42
2019-02-24T00:59:33.118Z,5.10
2019-02-24T01:02:04.193Z,9.28
2019-02-24T01:04:36.226Z,5.33
2019-02-24T01:07:07.320Z,5.55
2019-02-24T01:09:38.471Z,7.62
2019-02-24T01:12:09.536Z,6.37
2019-02-24T01:14:40.592Z,5.85
2019-02-24T01:17:11.747Z,5.87
2019-02-24T01:19:42.779Z,2.87
2019-02-24T01:22:13.798Z,5.30
2019-02-24T01:24:44.859Z,6.40
2019-02-24T01:27:15.984Z,4.62
2019-02-24T01:29:47.026Z,7.55
2019-02-24T01:32:18.133Z,6.17
2019-02-24T01:34:49.230Z,2.67
2019-02-24T01:37:20.291Z,4.60
2019-02-24T01:39:51.469Z,5.62
2019-02-24T01:42:22.518Z,14.00
2019-02-24T01:44:53.631Z,4.03
2019-02-24T01:47:24.661Z,3.27
2019-02-24T01:49:56.729Z,9.33
2019-02-24T01:52:27.769Z,7.92
2019-02-24T01:54:58.846Z,5.53
2019-02-24T01:57:29.878Z,6.12
2019-02-24T02:00:02.505Z,7.47
2019-02-24T02:02:34.336Z,8.08
2019-02-24T02:05:07.102Z,4.87
2019-02-24T02:07:38.135Z,10.00
2019-02-24T02:10:09.257Z,5.00
2019-02-24T02:12:40.295Z,9.73
2019-02-24T02:15:11.762Z,8.95
2019-02-24T02:17:42.813Z,3.70
2019-02-24T02:20:13.946Z,13.38
2019-02-24T02:22:44.984Z,7.55
2019-02-24T02:25:17.041Z,2.70
2019-02-24T02:27:48.072Z,4.15
2019-02-24T02:30:19.155Z,6.47
2019-02-24T02:32:50.302Z,11.97
2019-02-24T02:35:21.364Z,4.17
2019-02-24T02:37:52.428Z,4.45
2019-02-24T02:40:23.469Z,6.15
2019-02-24T02:42:55.528Z,6.22
2019-02-24T02:45:26.563Z,3.45
2019-02-24T02:47:57.635Z,4.80
2019-02-24T02:50:28.677Z,9.80
2019-02-24T02:52:59.741Z,4.80
2019-02-24T02:55:30.806Z,6.28
2019-02-24T02:58:01.911Z,4.20
2019-02-24T03:00:35.820Z,4.30
2019-02-24T03:03:06.885Z,5.10
2019-02-24T03:05:38.524Z,5.05
2019-02-24T03:08:11.165Z,4.55
2019-02-24T03:10:42.208Z,5.20
2019-02-24T03:13:13.278Z,14.05
2019-02-24T03:15:44.306Z,6.40
2019-02-24T03:18:15.374Z,5.15
2019-02-24T03:20:46.411Z,6.25
2019-02-24T03:23:17.475Z,11.38
2019-02-24T03:25:48.544Z,28.67
2019-02-24T03:28:19.612Z,2.45
2019-02-24T03:30:50.677Z,7.15
2019-02-24T03:33:21.730Z,5.05
2019-02-24T03:35:52.864Z,3.80
2019-02-24T03:38:23.900Z,4.87
2019-02-24T03:40:54.972Z,14.15
2019-02-24T03:43:26.218Z,6.92
2019-02-24T03:45:57.281Z,7.85
2019-02-24T03:48:28.336Z,8.35
2019-02-24T03:50:59.400Z,6.08
2019-02-24T03:53:30.425Z,1.87
2019-02-24T03:56:01.502Z,3.77
2019-02-24T03:58:32.541Z,2.92
2019-02-24T04:01:03.592Z,4.78
2019-02-24T04:03:34.631Z,5.37
2019-02-24T04:06:05.698Z,2.85
2019-02-24T04:08:36.724Z,3.55
2019-02-24T04:11:07.794Z,7.12
2019-02-24T04:13:38.829Z,11.25
2019-02-24T04:16:09.898Z,6.90
2019-02-24T04:18:40.942Z,8.80
2019-02-24T04:21:12.024Z,6.05
2019-02-24T04:23:43.083Z,6.00
2019-02-24T04:26:14.145Z,7.95
2019-02-24T04:28:45.212Z,4.03
2019-02-24T04:31:16.254Z,10.53
2019-02-24T04:33:48.320Z,4.50
2019-02-24T04:36:19.351Z,5.28
2019-02-24T04:38:51.056Z,7.33
2019-02-24T04:41:22.111Z,8.50
2019-02-24T04:43:53.178Z,3.17
2019-02-24T04:46:25.228Z,5.47
2019-02-24T04:48:56.296Z,5.97
2019-02-24T04:51:27.323Z,4.67
2019-02-24T04:53:58.392Z,4.22
2019-02-24T04:56:29.435Z,4.60
2019-02-24T04:59:00.520Z,6.05
2019-02-24T05:01:31.561Z,10.32
2019-02-24T05:04:02.634Z,7.20
2019-02-24T05:06:33.665Z,6.55
2019-02-24T05:09:04.840Z,5.72
2019-02-24T05:11:35.867Z,3.40
2019-02-24T05:14:06.945Z,6.92
2019-02-24T05:16:38.010Z,7.58
2019-02-24T05:19:09.046Z,5.78
2019-02-24T05:21:40.123Z,9.43
2019-02-24T05:24:11.160Z,5.47
2019-02-24T05:26:42.221Z,5.67
2019-02-24T05:29:13.251Z,5.87
2019-02-24T05:31:44.314Z,5.85
2019-02-24T05:34:15.350Z,6.20
2019-02-24T05:36:46.431Z,3.40
2019-02-24T05:39:17.461Z,9.85
2019-02-24T05:41:48.528Z,7.55
2019-02-24T05:44:19.563Z,6.28
2019-02-24T05:46:50.627Z,7.08
2019-02-24T05:49:21.661Z,9.53
2019-02-24T05:51:52.734Z,10.80
2019-02-24T05:54:23.775Z,9.85
2019-02-24T05:56:54.845Z,27.58
2019-02-24T05:59:25.891Z,13.90
2019-02-24T06:01:56.970Z,13.38
2019-02-24T06:04:28.009Z,13.05
2019-02-24T06:06:59.078Z,6.00
2019-02-24T06:09:30.120Z,25.80
2019-02-24T06:12:01.199Z,26.20
2019-02-24T06:14:32.277Z,19.90
2019-02-24T06:17:03.315Z,10.93
2019-02-24T06:19:34.387Z,9.70
2019-02-24T06:22:05.449Z,11.70
2019-02-24T06:24:36.516Z,20.48
2019-02-24T06:27:07.560Z,9.80
2019-02-24T06:29:38.660Z,9.78
2019-02-24T06:32:09.691Z,8.30
2019-02-24T06:34:40.835Z,5.50
2019-02-24T06:37:11.877Z,7.17
2019-02-24T06:39:42.941Z,5.15
2019-02-24T06:42:13.992Z,6.70
2019-02-24T06:44:45.115Z,10.60
2019-02-24T06:47:16.153Z,6.83
2019-02-24T06:49:47.221Z,10.93
2019-02-24T06:52:19.837Z,6.28
2019-02-24T06:54:50.907Z,11.43
2019-02-24T06:57:21.945Z,11.30
2019-02-24T06:59:53.007Z,7.90
2019-02-24T07:02:24.118Z,6.92
2019-02-24T07:04:55.191Z,10.40
2019-02-24T07:07:26.313Z,12.95
2019-02-24T07:09:57.425Z,8.25
2019-02-24T07:12:28.437Z,11.10
2019-02-24T07:14:59.474Z,6.50
2019-02-24T07:17:30.548Z,9.45
2019-02-24T07:20:01.586Z,5.00
2019-02-24T07:22:32.728Z,7.28
2019-02-24T07:25:03.992Z,8.45
2019-02-24T07:27:35.194Z,9.83
2019-02-24T07:30:09.630Z,6.05
2019-02-24T07:32:40.699Z,6.47
2019-02-24T07:35:11.728Z,8.35
2019-02-24T07:37:42.901Z,5.35
2019-02-24T07:40:13.928Z,5.60
2019-02-24T07:42:45.006Z,3.02
2019-02-24T07:45:16.034Z,5.92
2019-02-24T07:47:47.105Z,9.80
2019-02-24T07:50:18.136Z,9.53
2019-02-24T07:52:49.213Z,18.82
2019-02-24T07:55:20.210Z,6.78
2019-02-24T07:57:51.251Z,5.17
2019-02-24T08:00:22.312Z,5.17
2019-02-24T08:02:53.423Z,9.13
2019-02-24T08:05:24.488Z,4.30
2019-02-24T08:07:55.527Z,7.60
2019-02-24T08:10:26.596Z,6.80
2019-02-24T08:12:58.633Z,6.10
2019-02-24T08:15:29.702Z,5.20
2019-02-24T08:18:00.735Z,6.67
2019-02-24T08:20:33.394Z,10.88
2019-02-24T08:23:04.616Z,6.78
2019-02-24T08:25:35.688Z,7.03
2019-02-24T08:28:07.718Z,7.78
2019-02-24T08:30:41.535Z,15.75
2019-02-24T08:33:11.584Z,5.45
2019-02-24T08:35:42.646Z,4.65
2019-02-24T08:38:13.684Z,7.25
2019-02-24T08:40:44.747Z,5.97
2019-02-24T08:43:15.789Z,15.40
2019-02-24T08:45:46.860Z,10.03
2019-02-24T08:48:19.264Z,10.05
2019-02-24T08:50:50.476Z,9.80
2019-02-24T08:53:21.541Z,7.92
2019-02-24T08:55:52.582Z,8.75
2019-02-24T08:58:23.658Z,5.62
2019-02-24T09:00:54.691Z,15.20
2019-02-24T09:03:25.747Z,5.22
2019-02-24T09:05:56.895Z,10.10
2019-02-24T09:08:29.493Z,7.92
2019-02-24T09:11:00.528Z,7.00
2019-02-24T09:13:31.575Z,9.18
2019-02-24T09:16:02.620Z,11.53
2019-02-24T09:18:33.680Z,11.05
2019-02-24T09:21:04.697Z,5.03
2019-02-24T09:23:35.773Z,5.55
2019-02-24T09:26:06.810Z,12.28
2019-02-24T09:28:37.906Z,9.18
2019-02-24T09:31:08.941Z,7.92
2019-02-24T09:33:40.002Z,8.00
2019-02-24T09:36:11.040Z,6.75
2019-02-24T09:38:42.339Z,6.55
2019-02-24T09:41:13.432Z,10.93
2019-02-24T09:43:44.383Z,7.97
2019-02-24T09:46:15.449Z,10.88
2019-02-24T09:48:46.475Z,6.17
2019-02-24T09:51:17.588Z,10.65
2019-02-24T09:53:49.781Z,7.83
2019-02-24T09:56:20.955Z,6.83
2019-02-24T09:58:51.984Z,15.45
2019-02-24T10:01:23.039Z,8.83
2019-02-24T10:03:54.062Z,16.93
2019-02-24T10:06:25.129Z,12.50
2019-02-24T10:08:56.156Z,9.38
2019-02-24T10:11:27.288Z,6.17
2019-02-24T10:13:58.364Z,6.55
2019-02-24T10:16:29.603Z,16.55
2019-02-24T10:19:00.794Z,8.53
2019-02-24T10:21:31.869Z,10.98
2019-02-24T10:24:05.421Z,12.95
2019-02-24T10:26:36.491Z,8.23
2019-02-24T10:29:07.617Z,5.65
2019-02-24T10:31:38.638Z,9.45
2019-02-24T10:34:09.697Z,12.05
2019-02-24T10:36:40.732Z,11.57
2019-02-24T10:39:13.820Z,10.10
2019-02-24T10:41:47.849Z,12.55
2019-02-24T10:44:18.918Z,9.18
2019-02-24T10:46:49.945Z,9.20
2019-02-24T10:49:21.011Z,9.33
2019-02-24T10:51:52.066Z,8.55
2019-02-24T10:54:23.248Z,7.67
2019-02-24T10:56:54.432Z,6.83
2019-02-24T10:59:28.262Z,8.43
2019-02-24T11:01:59.301Z,9.23
2019-02-24T11:04:30.370Z,11.50
2019-02-24T11:07:01.403Z,15.55
2019-02-24T11:09:32.467Z,9.85
2019-02-24T11:12:03.500Z,8.25
2019-02-24T11:14:34.633Z,9.55
2019-02-24T11:17:05.673Z,9.38
2019-02-24T11:19:36.737Z,6.42
2019-02-24T11:22:07.811Z,12.25
2019-02-24T11:24:38.848Z,8.40
2019-02-24T11:27:09.993Z,10.40
2019-02-24T11:29:41.031Z,8.55
2019-02-24T11:32:12.107Z,19.75
2019-02-24T11:34:43.145Z,8.20
2019-02-24T11:37:14.214Z,5.00
2019-02-24T11:39:45.249Z,7.03
2019-02-24T11:42:16.323Z,7.85
2019-02-24T11:44:47.351Z,7.87
2019-02-24T11:47:18.541Z,5.95
2019-02-24T11:49:49.571Z,8.48
2019-02-24T11:52:20.644Z,7.55
2019-02-24T11:54:51.684Z,7.62
2019-02-24T11:57:22.745Z,5.67
2019-02-24T11:59:54.807Z,8.63
2019-02-24T12:02:33.994Z,6.30
2019-02-24T12:04:58.605Z,7.58
2019-02-24T12:07:29.669Z,5.30
2019-02-24T12:10:00.704Z,6.55
2019-02-24T12:12:31.765Z,6.42
2019-02-24T12:15:02.831Z,6.90
2019-02-24T12:17:34.296Z,5.80
2019-02-24T12:20:08.369Z,4.58
2019-02-24T12:22:39.433Z,6.42
2019-02-24T12:25:12.503Z,7.78
2019-02-24T12:27:44.570Z,7.70
2019-02-24T12:30:19.217Z,8.95
2019-02-24T12:32:50.286Z,6.67
2019-02-24T12:35:21.365Z,8.45
2019-02-24T12:37:52.423Z,9.28
2019-02-24T12:40:23.496Z,10.18
2019-02-24T12:42:54.675Z,7.15
2019-02-24T12:45:25.836Z,5.83
2019-02-24T12:47:56.870Z,5.62
2019-02-24T12:50:27.955Z,8.90
2019-02-24T12:52:59.005Z,8.43
2019-02-24T12:55:30.176Z,8.18
2019-02-24T12:58:01.239Z,7.60
2019-02-24T13:00:32.420Z,11.12
2019-02-24T13:03:03.458Z,13.18
2019-02-24T13:05:35.605Z,15.40
2019-02-24T13:08:06.638Z,8.80
2019-02-24T13:10:37.706Z,9.88
2019-02-24T13:13:08.738Z,9.30
2019-02-24T13:15:39.809Z,11.78
2019-02-24T13:18:10.852Z,21.80
2019-02-24T13:20:41.922Z,10.90
2019-02-24T13:23:13.098Z,4.90
2019-02-24T13:25:45.774Z,6.60
2019-02-24T13:28:18.467Z,11.12
2019-02-24T13:30:49.626Z,4.90
2019-02-24T13:33:20.690Z,4.50
2019-02-24T13:35:51.904Z,6.67
2019-02-24T13:38:23.664Z,4.60
2019-02-24T13:40:54.732Z,6.90
2019-02-24T13:43:25.798Z,4.92
2019-02-24T13:45:56.835Z,4.15
2019-02-24T13:48:27.902Z,5.53
2019-02-24T13:50:58.935Z,4.72
2019-02-24T13:53:30.001Z,7.92
2019-02-24T13:56:02.049Z,4.22
2019-02-24T13:58:33.116Z,4.37
2019-02-24T14:01:04.162Z,3.65
2019-02-24T14:03:35.269Z,9.88
2019-02-24T14:06:06.322Z,4.78
2019-02-24T14:08:37.490Z,5.47
2019-02-24T14:11:08.638Z,4.55
2019-02-24T14:13:39.696Z,7.03
2019-02-24T14:16:10.738Z,4.37
2019-02-24T14:18:41.804Z,7.97
2019-02-24T14:21:12.882Z,8.08
2019-02-24T14:23:43.902Z,3.93
2019-02-24T14:26:14.978Z,4.95
2019-02-24T14:28:45.981Z,6.30
2019-02-24T14:31:17.024Z,4.27
2019-02-24T14:33:48.069Z,5.63
2019-02-24T14:36:19.113Z,7.97
2019-02-24T14:38:51.118Z,5.10
2019-02-24T14:41:22.151Z,6.03
2019-02-24T14:43:53.178Z,4.00
2019-02-24T14:46:24.319Z,4.93
2019-02-24T14:48:55.325Z,6.03
2019-02-24T14:51:26.402Z,7.73
2019-02-24T14:53:58.407Z,5.10
2019-02-24T14:56:29.460Z,7.20
2019-02-24T14:59:00.468Z,7.43
2019-02-24T15:01:31.507Z,6.03
2019-02-24T15:04:02.552Z,7.00
2019-02-24T15:06:33.678Z,7.17
2019-02-24T15:09:05.625Z,6.53
2019-02-24T15:11:38.243Z,5.20
2019-02-24T15:14:09.295Z,5.90
2019-02-24T15:16:40.289Z,8.83
2019-02-24T15:19:11.327Z,6.27
2019-02-24T15:21:42.341Z,5.43
2019-02-24T15:24:13.369Z,4.80
2019-02-24T15:26:44.394Z,8.73
2019-02-24T15:29:15.428Z,7.83
2019-02-24T15:31:46.815Z,6.67
2019-02-24T15:34:20.546Z,7.50
2019-02-24T15:36:51.568Z,7.90
2019-02-24T15:39:22.608Z,11.37
2019-02-24T15:41:53.730Z,15.77
2019-02-24T15:44:24.767Z,7.60
2019-02-24T15:46:55.778Z,7.63
2019-02-24T15:49:26.810Z,11.83
2019-02-24T15:51:57.817Z,8.13
2019-02-24T15:54:29.025Z,5.60
2019-02-24T15:57:00.033Z,5.13
2019-02-24T15:59:31.076Z,7.03
2019-02-24T16:02:02.131Z,6.13
2019-02-24T16:04:33.170Z,6.30
2019-02-24T16:07:04.208Z,4.90
2019-02-24T16:09:35.217Z,7.40
2019-02-24T16:12:06.263Z,5.50
2019-02-24T16:14:37.187Z,6.80
2019-02-24T16:17:08.276Z,5.37
2019-02-24T16:19:40.310Z,6.60
2019-02-24T16:22:11.386Z,11.00
2019-02-24T16:24:42.423Z,7.90
2019-02-24T16:27:13.493Z,7.53
2019-02-24T16:29:44.534Z,16.52
2019-02-24T16:32:16.594Z,6.20
2019-02-24T16:34:47.724Z,8.78
2019-02-24T16:37:18.781Z,9.95
2019-02-24T16:39:49.806Z,8.33
2019-02-24T16:42:20.861Z,11.50
2019-02-24T16:44:51.956Z,6.50
2019-02-24T16:47:23.101Z,16.37
2019-02-24T16:49:54.132Z,9.38
2019-02-24T16:52:25.173Z,6.97
2019-02-24T16:54:56.205Z,6.17
2019-02-24T16:57:27.263Z,22.93
2019-02-24T16:59:58.314Z,4.80
2019-02-24T17:02:29.375Z,11.30
2019-02-24T17:05:00.435Z,10.80
2019-02-24T17:07:34.224Z,9.70
2019-02-24T17:10:11.144Z,6.95
2019-02-24T17:12:42.272Z,7.80
2019-02-24T17:15:14.052Z,10.98
2019-02-24T17:17:45.076Z,12.65
2019-02-24T17:20:25.349Z,12.23
2019-02-24T17:22:56.501Z,5.95
2019-02-24T17:25:27.582Z,16.35
2019-02-24T17:27:58.630Z,9.53
2019-02-24T17:30:29.751Z,14.68
2019-02-24T17:33:00.778Z,11.28
2019-02-24T17:35:31.832Z,9.03
2019-02-24T17:38:02.867Z,9.63
2019-02-24T17:40:33.924Z,10.20
2019-02-24T17:43:04.998Z,10.78
2019-02-24T17:45:36.058Z,11.53
2019-02-24T17:48:07.082Z,25.08
2019-02-24T17:50:38.137Z,19.95
2019-02-24T17:53:09.170Z,12.90
2019-02-24T17:55:40.301Z,21.93
2019-02-24T17:58:11.335Z,13.45
2019-02-24T18:00:59.090Z,27.90
2019-02-24T18:03:38.837Z,27.25
2019-02-24T18:06:02.880Z,19.45
2019-02-24T18:08:33.919Z,21.97
2019-02-24T18:11:05.049Z,24.82
2019-02-24T18:13:36.100Z,17.75
2019-02-24T18:16:07.171Z,21.65
2019-02-24T18:18:38.216Z,20.97
2019-02-24T18:21:09.252Z,16.15
2019-02-24T18:23:40.315Z,21.30
2019-02-24T18:26:11.349Z,18.05
2019-02-24T18:28:42.422Z,18.05
2019-02-24T18:31:13.453Z,27.52
2019-02-24T18:33:48.263Z,24.37
2019-02-24T18:36:17.254Z,19.02
2019-02-24T18:38:48.320Z,33.60
2019-02-24T18:41:19.351Z,30.10
2019-02-24T18:43:50.418Z,23.50
2019-02-24T18:46:21.565Z,34.00
2019-02-24T18:48:52.821Z,19.90
2019-02-24T18:51:23.911Z,19.27
2019-02-24T18:53:55.933Z,20.95
2019-02-24T18:56:27.034Z,35.23
2019-02-24T18:58:58.100Z,23.25
2019-02-24T19:01:29.169Z,18.50
2019-02-24T19:04:00.233Z,19.02
2019-02-24T19:06:38.924Z,23.22
2019-02-24T19:09:04.080Z,19.60
2019-02-24T19:11:36.698Z,33.98
2019-02-24T19:14:07.742Z,20.68
2019-02-24T19:16:38.810Z,22.82
2019-02-24T19:19:09.862Z,31.07
2019-02-24T19:21:40.942Z,22.13
2019-02-24T19:24:11.991Z,25.52
2019-02-24T19:26:43.071Z,21.48
2019-02-24T19:29:14.117Z,26.60
2019-02-24T19:31:45.206Z,22.40
2019-02-24T19:34:16.234Z,21.77
2019-02-24T19:36:48.605Z,16.27
2019-02-24T19:39:20.404Z,20.35
2019-02-24T19:41:51.509Z,19.65
2019-02-24T19:44:22.552Z,23.67
2019-02-24T19:46:53.732Z,17.55
2019-02-24T19:49:27.777Z,20.25
2019-02-24T19:51:59.019Z,22.13
2019-02-24T19:54:30.112Z,23.52
2019-02-24T19:57:01.186Z,26.33
2019-02-24T19:59:32.263Z,19.50
2019-02-24T20:02:03.320Z,24.12
2019-02-24T20:04:34.381Z,17.10
2019-02-24T20:07:05.530Z,20.88
2019-02-24T20:09:36.593Z,17.77
2019-02-24T20:12:07.641Z,18.40
2019-02-24T20:14:38.721Z,18.15
2019-02-24T20:17:09.763Z,20.52
2019-02-24T20:19:40.838Z,13.55
2019-02-24T20:22:11.890Z,18.92
2019-02-24T20:24:43.065Z,21.33
2019-02-24T20:27:14.162Z,25.20
2019-02-24T20:29:45.245Z,21.40
2019-02-24T20:32:18.035Z,19.60
2019-02-24T20:34:49.105Z,20.05
2019-02-24T20:37:20.201Z,24.82
2019-02-24T20:39:51.275Z,19.48
2019-02-24T20:42:22.341Z,25.35
2019-02-24T20:44:53.423Z,20.30
2019-02-24T20:47:24.497Z,21.35
2019-02-24T20:49:55.542Z,15.35
2019-02-24T20:52:26.609Z,16.48
2019-02-24T20:54:57.664Z,22.50
2019-02-24T20:57:28.749Z,21.17
2019-02-24T20:59:59.809Z,23.25
2019-02-24T21:02:31.135Z,17.70
2019-02-24T21:05:02.186Z,17.15
2019-02-24T21:07:33.253Z,15.50
2019-02-24T21:10:06.096Z,18.00
2019-02-24T21:12:37.158Z,17.02
2019-02-24T21:15:12.594Z,17.60
2019-02-24T21:17:43.685Z,22.50
2019-02-24T21:20:24.610Z,18.10
2019-02-24T21:22:55.707Z,34.08
2019-02-24T21:25:26.752Z,21.17
2019-02-24T21:27:57.832Z,29.07
2019-02-24T21:30:28.874Z,31.25
2019-02-24T21:32:59.950Z,29.42
2019-02-24T21:35:30.994Z,25.10
2019-02-24T21:38:02.082Z,26.93
2019-02-24T21:40:33.152Z,30.68
2019-02-24T21:43:04.197Z,21.50
2019-02-24T21:45:35.274Z,21.07
2019-02-24T21:48:06.335Z,22.37
2019-02-24T21:50:37.409Z,20.15
2019-02-24T21:53:08.463Z,26.40
2019-02-24T21:55:39.542Z,29.45
2019-02-24T21:58:10.589Z,19.48
2019-02-24T22:00:41.763Z,22.22
2019-02-24T22:03:12.816Z,22.87
2019-02-24T22:05:44.895Z,18.10
2019-02-24T22:08:15.943Z,19.37
2019-02-24T22:10:47.030Z,23.75
2019-02-24T22:13:18.066Z,22.80
2019-02-24T22:15:49.144Z,22.73
2019-02-24T22:18:20.211Z,22.27
2019-02-24T22:20:51.287Z,25.75
2019-02-24T22:23:22.371Z,25.45
2019-02-24T22:25:53.409Z,17.00
2019-02-24T22:28:24.483Z,21.15
2019-02-24T22:30:55.530Z,21.17
2019-02-24T22:33:26.596Z,18.00
2019-02-24T22:35:57.640Z,19.65
2019-02-24T22:38:28.714Z,25.43
2019-02-24T22:40:59.756Z,18.73
2019-02-24T22:43:30.836Z,24.50
2019-02-24T22:46:01.888Z,21.60
2019-02-24T22:48:32.975Z,24.63
2019-02-24T22:51:05.025Z,24.15
2019-02-24T22:53:36.152Z,23.22
2019-02-24T22:56:07.259Z,20.00
2019-02-24T22:58:38.339Z,27.02
2019-02-24T23:01:11.742Z,20.82
2019-02-24T23:03:42.819Z,17.75
2019-02-24T23:06:13.964Z,18.67
2019-02-24T23:08:45.134Z,17.32
2019-02-24T23:11:16.211Z,25.60
2019-02-24T23:13:47.248Z,16.10
2019-02-24T23:16:18.321Z,19.32
2019-02-24T23:18:50.381Z,17.35
2019-02-24T23:21:21.465Z,21.80
2019-02-24T23:23:52.509Z,16.82
2019-02-24T23:26:23.577Z,20.32
2019-02-24T23:28:54.616Z,23.47
2019-02-24T23:31:25.705Z,26.50
2019-02-24T23:33:56.751Z,17.10
2019-02-24T23:36:27.824Z,13.53
2019-02-24T23:38:58.863Z,15.05
2019-02-24T23:41:29.926Z,17.55
2019-02-24T23:44:00.969Z,26.00
2019-02-24T23:46:32.040Z,15.83
2019-02-24T23:49:03.092Z,18.48
2019-02-24T23:51:34.227Z,16.23
2019-02-24T23:54:05.329Z,10.98
2019-02-24T23:56:36.597Z,17.52
2019-02-24T23:59:07.937Z,13.15
